createdAt,value
2022-12-06T00:01:10.989Z,57.00
2022-12-06T00:04:16.839Z,59.00
2022-12-06T00:07:20.304Z,55.25
2022-12-06T00:10:25.933Z,57.25
2022-12-06T00:13:29.723Z,52.00
2022-12-06T00:16:34.583Z,55.00
2022-12-06T00:19:38.244Z,56.00
2022-12-06T00:22:45.454Z,55.60
2022-12-06T00:25:50.498Z,58.60
2022-12-06T00:28:55.315Z,54.00
2022-12-06T00:31:58.800Z,55.00
2022-12-06T00:35:02.447Z,59.80
2022-12-06T00:38:05.798Z,55.00
2022-12-06T00:41:12.511Z,58.20
2022-12-06T00:44:16.238Z,61.80
2022-12-06T00:47:19.609Z,55.00
2022-12-06T00:50:23.427Z,64.20
2022-12-06T00:53:27.321Z,63.00
2022-12-06T00:56:32.382Z,63.60
2022-12-06T00:59:35.849Z,60.25
2022-12-06T01:02:39.861Z,69.00
2022-12-06T01:05:44.328Z,64.20
2022-12-06T01:08:47.855Z,69.00
2022-12-06T01:11:52.561Z,61.80
2022-12-06T01:14:55.867Z,76.50
2022-12-06T01:17:59.452Z,70.60
2022-12-06T01:21:05.644Z,67.00
2022-12-06T01:24:09.248Z,65.60
2022-12-06T01:27:14.488Z,67.00
2022-12-06T01:30:18.095Z,67.40
2022-12-06T01:33:21.512Z,63.20
2022-12-06T01:36:26.695Z,66.20
2022-12-06T01:39:29.975Z,65.00
2022-12-06T01:42:34.994Z,64.60
2022-12-06T01:45:39.089Z,67.20
2022-12-06T01:48:43.259Z,59.00
2022-12-06T01:51:52.784Z,58.20
2022-12-06T01:54:57.379Z,59.00
2022-12-06T01:58:07.343Z,62.00
2022-12-06T02:01:12.032Z,60.50
2022-12-06T02:04:17.724Z,61.80
2022-12-06T02:07:23.624Z,59.50
2022-12-06T02:10:27.904Z,59.80
2022-12-06T02:13:34.985Z,59.80
2022-12-06T02:16:55.033Z,59.40
2022-12-06T02:20:14.124Z,65.80
2022-12-06T02:23:42.264Z,64.00
2022-12-06T02:26:48.938Z,62.25
2022-12-06T02:30:13.445Z,60.40
2022-12-06T02:33:24.288Z,58.80
2022-12-06T02:36:33.896Z,57.60
2022-12-06T02:39:44.039Z,57.50
2022-12-06T02:42:52.555Z,57.00
2022-12-06T02:46:00.575Z,55.00
2022-12-06T02:49:08.234Z,55.40
2022-12-06T02:52:12.346Z,56.50
2022-12-06T02:55:19.594Z,59.20
2022-12-06T02:58:23.263Z,60.25
2022-12-06T03:01:30.771Z,61.20
2022-12-06T03:04:49.146Z,58.00
2022-12-06T03:07:54.253Z,55.20
2022-12-06T03:11:01.723Z,55.67
2022-12-06T03:14:11.026Z,51.20
2022-12-06T03:17:23.863Z,51.00
2022-12-06T03:20:43.099Z,60.50
2022-12-06T03:23:50.176Z,61.60
2022-12-06T03:26:57.908Z,53.60
2022-12-06T03:30:05.291Z,57.40
2022-12-06T03:33:09.378Z,58.25
2022-12-06T03:36:18.601Z,55.00
2022-12-06T03:39:27.815Z,56.40
2022-12-06T03:42:31.814Z,57.80
2022-12-06T03:45:44.463Z,51.75
2022-12-06T03:48:51.090Z,57.00
2022-12-06T03:51:56.366Z,57.20
2022-12-06T03:54:59.513Z,52.00
2022-12-06T03:58:02.756Z,52.00
2022-12-06T04:01:09.641Z,52.00
2022-12-06T04:04:13.256Z,51.00
2022-12-06T04:07:21.714Z,51.75
2022-12-06T04:10:24.964Z,53.00
2022-12-06T04:13:29.169Z,51.00
2022-12-06T04:16:49.804Z,49.60
2022-12-06T04:19:53.134Z,51.60
2022-12-06T04:23:05.682Z,52.20
2022-12-06T04:26:11.406Z,50.60
2022-12-06T04:29:32.177Z,51.00
2022-12-06T04:32:52.466Z,49.40
2022-12-06T04:36:15.185Z,50.00
2022-12-06T04:39:21.340Z,50.00
2022-12-06T04:42:42.194Z,48.75
2022-12-06T04:45:45.525Z,49.40
2022-12-06T04:48:48.715Z,50.40
2022-12-06T04:51:52.261Z,51.00
2022-12-06T04:54:56.989Z,51.00
2022-12-06T04:58:00.285Z,54.00
2022-12-06T05:01:03.690Z,53.00
2022-12-06T05:04:07.098Z,51.80
2022-12-06T05:07:11.857Z,53.00
2022-12-06T05:10:16.545Z,50.00
2022-12-06T05:13:21.399Z,57.00
2022-12-06T05:16:24.823Z,52.00
2022-12-06T05:19:28.624Z,51.00
2022-12-06T05:22:34.117Z,53.40
2022-12-06T05:25:38.971Z,51.00
2022-12-06T05:28:42.363Z,48.00
2022-12-06T05:31:46.058Z,50.00
2022-12-06T05:34:49.733Z,52.75
2022-12-06T05:37:52.961Z,51.20
2022-12-06T05:40:57.661Z,52.00
2022-12-06T05:44:00.987Z,49.00
2022-12-06T05:47:04.528Z,54.60
2022-12-06T05:50:08.994Z,50.00
2022-12-06T05:53:12.280Z,50.80
2022-12-06T05:56:16.984Z,52.00
2022-12-06T05:59:20.187Z,50.80
2022-12-06T06:02:23.687Z,51.00
2022-12-06T06:05:27.040Z,50.00
2022-12-06T06:08:31.542Z,50.60
2022-12-06T06:11:36.324Z,49.00
2022-12-06T06:14:39.870Z,48.00
2022-12-06T06:17:43.757Z,48.80
2022-12-06T06:20:51.456Z,47.80
2022-12-06T06:23:54.836Z,47.75
2022-12-06T06:26:59.523Z,51.00
2022-12-06T06:30:04.619Z,49.20
2022-12-06T06:33:08.020Z,44.00
2022-12-06T06:36:11.982Z,46.00
2022-12-06T06:39:15.248Z,46.60
2022-12-06T06:42:20.218Z,47.80
2022-12-06T06:45:28.374Z,44.75
2022-12-06T06:48:35.618Z,47.80
2022-12-06T06:51:39.060Z,47.00
2022-12-06T06:54:42.323Z,45.60
2022-12-06T06:57:47.766Z,46.00
2022-12-06T07:00:54.440Z,46.00
2022-12-06T07:03:57.757Z,47.25
2022-12-06T07:07:01.078Z,46.33
2022-12-06T07:10:04.771Z,48.00
2022-12-06T07:13:09.678Z,45.00
2022-12-06T07:16:16.451Z,45.75
2022-12-06T07:19:20.045Z,43.60
2022-12-06T07:22:23.506Z,45.00
2022-12-06T07:25:26.937Z,45.60
2022-12-06T07:28:31.966Z,39.60
2022-12-06T07:31:35.568Z,39.67
2022-12-06T07:34:39.018Z,41.00
2022-12-06T07:37:43.418Z,41.00
2022-12-06T07:44:31.416Z,42.00
2022-12-06T07:47:36.071Z,36.60
2022-12-06T07:50:39.898Z,36.00
2022-12-06T07:53:43.228Z,38.60
2022-12-06T07:56:46.663Z,41.20
2022-12-06T07:59:51.396Z,38.60
2022-12-06T08:02:54.848Z,41.00
2022-12-06T08:05:58.177Z,39.60
2022-12-06T08:09:01.958Z,38.50
2022-12-06T08:12:05.623Z,39.00
2022-12-06T08:15:13.252Z,40.00
2022-12-06T08:18:16.716Z,36.20
2022-12-06T08:21:20.152Z,39.00
2022-12-06T08:24:23.402Z,40.20
2022-12-06T08:27:26.984Z,38.00
2022-12-06T08:30:31.740Z,35.00
2022-12-06T08:33:35.818Z,36.25
2022-12-06T08:36:40.482Z,40.00
2022-12-06T08:39:43.779Z,39.00
2022-12-06T08:42:47.115Z,36.20
2022-12-06T08:45:53.830Z,36.20
2022-12-06T08:48:57.580Z,39.00
2022-12-06T08:52:01.540Z,40.40
2022-12-06T08:55:05.103Z,38.00
2022-12-06T08:58:08.455Z,40.75
2022-12-06T09:01:15.123Z,36.50
2022-12-06T09:04:19.581Z,39.00
2022-12-06T09:07:23.553Z,39.00
2022-12-06T09:10:27.280Z,39.00
2022-12-06T09:13:30.906Z,41.00
2022-12-06T09:16:36.084Z,38.00
2022-12-06T09:19:39.634Z,38.50
2022-12-06T09:22:42.913Z,33.40
2022-12-06T09:25:46.220Z,39.25
2022-12-06T09:28:50.912Z,42.80
2022-12-06T09:31:55.611Z,41.00
2022-12-06T09:34:58.958Z,38.20
2022-12-06T09:38:03.884Z,38.25
2022-12-06T09:41:17.827Z,37.00
2022-12-06T09:44:41.194Z,34.25
2022-12-06T09:48:06.544Z,38.00
2022-12-06T09:51:25.904Z,40.50
2022-12-06T09:54:53.523Z,38.00
2022-12-06T09:58:09.545Z,34.00
2022-12-06T10:01:26.421Z,34.00
2022-12-06T10:04:59.289Z,32.25
2022-12-06T10:08:13.078Z,34.40
2022-12-06T10:11:27.935Z,33.00
2022-12-06T10:14:47.739Z,33.20
2022-12-06T10:18:06.611Z,32.00
2022-12-06T10:21:24.051Z,31.00
2022-12-06T10:24:43.460Z,32.00
2022-12-06T10:27:58.613Z,32.75
2022-12-06T10:31:14.191Z,31.20
2022-12-06T10:34:23.060Z,29.75
2022-12-06T10:37:42.449Z,31.80
2022-12-06T10:40:54.498Z,32.60
2022-12-06T10:44:03.582Z,32.00
2022-12-06T10:47:13.184Z,32.00
2022-12-06T10:50:24.315Z,35.00
2022-12-06T10:53:36.074Z,38.60
2022-12-06T10:56:43.104Z,33.00
2022-12-06T10:59:54.536Z,31.40
2022-12-06T11:03:05.056Z,37.80
2022-12-06T11:06:16.666Z,32.20
2022-12-06T11:09:33.062Z,32.40
2022-12-06T11:12:39.885Z,35.50
2022-12-06T11:15:51.046Z,35.33
2022-12-06T11:18:58.450Z,38.00
2022-12-06T11:22:12.450Z,33.40
2022-12-06T11:25:24.865Z,34.50
2022-12-06T11:28:38.832Z,36.00
2022-12-06T11:31:46.963Z,34.40
2022-12-06T11:34:53.184Z,34.00
2022-12-06T11:37:59.843Z,36.00
2022-12-06T11:41:09.376Z,35.60
2022-12-06T11:44:18.611Z,38.80
2022-12-06T11:47:23.766Z,38.00
2022-12-06T11:50:31.580Z,37.60
2022-12-06T11:53:41.510Z,37.40
2022-12-06T11:56:47.135Z,33.00
2022-12-06T12:00:13.774Z,36.60
2022-12-06T12:03:29.641Z,39.00
2022-12-06T12:06:34.394Z,36.00
2022-12-06T12:09:48.527Z,38.67
2022-12-06T12:13:11.980Z,39.00
2022-12-06T12:16:19.751Z,38.00
2022-12-06T12:19:33.345Z,38.00
2022-12-06T12:22:39.483Z,38.00
2022-12-06T12:25:43.915Z,40.00
2022-12-06T12:29:04.931Z,36.60
2022-12-06T12:32:12.486Z,37.40
2022-12-06T12:35:28.289Z,40.50
2022-12-06T12:38:38.783Z,38.00
2022-12-06T12:41:45.305Z,38.00
2022-12-06T12:44:50.323Z,40.00
2022-12-06T12:48:01.293Z,36.00
2022-12-06T12:51:07.124Z,39.00
2022-12-06T12:54:21.908Z,39.00
2022-12-06T12:57:25.553Z,39.00
2022-12-06T13:00:36.115Z,39.75
2022-12-06T13:03:53.583Z,39.20
2022-12-06T13:07:00.948Z,37.00
2022-12-06T13:10:08.108Z,40.80
2022-12-06T13:13:17.824Z,39.00
2022-12-06T13:16:28.910Z,36.00
2022-12-06T13:19:37.011Z,37.00
2022-12-06T13:22:45.352Z,35.80
2022-12-06T13:25:53.954Z,38.00
2022-12-06T13:29:01.518Z,38.00
2022-12-06T13:32:15.192Z,35.00
2022-12-06T13:35:25.007Z,36.60
2022-12-06T13:38:32.907Z,30.00
2022-12-06T13:42:13.932Z,21.00
2022-12-06T13:45:45.477Z,22.00
2022-12-06T13:48:55.079Z,19.00
2022-12-06T13:51:58.408Z,12.00
2022-12-06T13:55:42.321Z,14.00
2022-12-06T13:58:54.797Z,16.00
2022-12-06T14:02:00.344Z,12.40
2022-12-06T14:05:05.351Z,11.60
2022-12-06T14:08:12.341Z,14.00
2022-12-06T14:11:23.359Z,13.00
2022-12-06T14:14:27.013Z,19.00
2022-12-06T14:18:01.576Z,10.80
2022-12-06T14:21:04.798Z,16.00
2022-12-06T14:24:08.383Z,14.50
2022-12-06T14:27:14.699Z,13.80
2022-12-06T14:30:25.649Z,14.60
2022-12-06T14:33:29.797Z,14.40
2022-12-06T14:36:36.519Z,14.80
2022-12-06T14:39:40.361Z,17.00
2022-12-06T14:43:02.109Z,14.25
2022-12-06T14:46:08.236Z,20.00
2022-12-06T14:49:32.334Z,14.00
2022-12-06T14:52:37.132Z,17.00
2022-12-06T14:55:54.535Z,18.00
2022-12-06T14:58:59.687Z,18.50
2022-12-06T15:02:03.148Z,17.20
2022-12-06T15:05:34.497Z,16.00
2022-12-06T15:08:40.743Z,16.00
2022-12-06T15:12:02.792Z,17.60
2022-12-06T15:15:06.950Z,18.00
2022-12-06T15:18:24.021Z,20.20
2022-12-06T15:21:27.872Z,17.25
2022-12-06T15:24:33.000Z,21.00
2022-12-06T15:27:36.474Z,20.00
2022-12-06T15:30:39.779Z,13.80
2022-12-06T15:33:43.172Z,19.80
2022-12-06T15:36:46.455Z,21.00
2022-12-06T15:39:51.105Z,18.25
2022-12-06T15:42:59.146Z,18.00
2022-12-06T15:46:06.540Z,18.00
2022-12-06T15:49:14.106Z,15.25
2022-12-06T15:52:19.450Z,21.40
2022-12-06T15:55:24.125Z,22.00
2022-12-06T15:58:27.538Z,23.00
2022-12-06T16:01:39.310Z,19.75
2022-12-06T16:04:48.516Z,21.60
2022-12-06T16:07:51.859Z,18.60
2022-12-06T16:11:11.766Z,20.33
2022-12-06T16:14:15.944Z,27.00
2022-12-06T16:17:19.424Z,23.00
2022-12-06T16:20:35.621Z,24.00
2022-12-06T16:24:13.428Z,23.60
2022-12-06T16:27:19.117Z,23.50
2022-12-06T16:30:32.376Z,21.00
2022-12-06T16:33:35.779Z,20.75
2022-12-06T16:36:56.255Z,20.50
2022-12-06T16:39:59.483Z,23.33
2022-12-06T16:43:04.205Z,23.80
2022-12-06T16:46:23.018Z,22.00
2022-12-06T16:52:52.716Z,22.00
2022-12-06T16:55:56.095Z,26.60
2022-12-06T16:59:01.829Z,23.00
2022-12-06T17:02:11.673Z,25.20
2022-12-06T17:05:20.581Z,24.40
2022-12-06T17:08:23.804Z,26.60
2022-12-06T17:12:01.165Z,24.80
2022-12-06T17:15:07.109Z,24.25
2022-12-06T17:18:10.456Z,22.00
2022-12-06T17:21:17.064Z,25.20
2022-12-06T17:24:22.183Z,23.00
2022-12-06T17:27:25.383Z,19.20
2022-12-06T17:30:30.074Z,21.40
2022-12-06T17:33:33.322Z,21.00
2022-12-06T17:36:36.843Z,19.80
2022-12-06T17:39:40.719Z,24.40
2022-12-06T17:43:02.469Z,22.40
2022-12-06T17:46:10.042Z,23.00
2022-12-06T17:49:15.216Z,18.20
2022-12-06T17:52:18.656Z,18.50
2022-12-06T17:55:21.997Z,19.20
2022-12-06T17:58:25.320Z,27.00
2022-12-06T18:01:44.801Z,23.00
2022-12-06T18:04:56.370Z,20.60
2022-12-06T18:07:59.750Z,21.60
2022-12-06T18:11:03.196Z,23.60
2022-12-06T18:14:07.006Z,22.40
2022-12-06T18:17:11.747Z,21.25
2022-12-06T18:20:15.720Z,20.00
2022-12-06T18:23:19.408Z,21.50
2022-12-06T18:26:23.856Z,24.50
2022-12-06T18:29:27.145Z,21.00
2022-12-06T18:32:32.192Z,19.75
2022-12-06T18:35:36.593Z,21.80
2022-12-06T18:38:39.917Z,22.00
2022-12-06T18:41:43.581Z,21.25
2022-12-06T18:44:47.874Z,18.75
2022-12-06T18:47:52.715Z,20.00
2022-12-06T18:50:56.625Z,20.60
2022-12-06T18:54:00.856Z,21.00
2022-12-06T18:57:04.205Z,18.00
2022-12-06T19:00:08.803Z,19.40
2022-12-06T19:03:14.360Z,19.60
2022-12-06T19:06:19.500Z,21.25
2022-12-06T19:09:23.626Z,20.60
2022-12-06T19:12:27.086Z,17.80
2022-12-06T19:15:31.268Z,18.00
2022-12-06T19:18:35.934Z,15.80
2022-12-06T19:21:39.591Z,16.00
2022-12-06T19:24:43.309Z,17.60
2022-12-06T19:27:46.854Z,16.00
2022-12-06T19:30:57.723Z,21.00
2022-12-06T19:34:02.469Z,14.80
2022-12-06T19:37:06.301Z,21.40
2022-12-06T19:40:11.287Z,20.40
2022-12-06T19:43:31.812Z,16.00
2022-12-06T19:46:35.121Z,22.40
2022-12-06T19:49:40.182Z,20.00
2022-12-06T19:52:43.431Z,20.00
2022-12-06T19:55:47.211Z,24.25
2022-12-06T19:58:50.603Z,17.80
2022-12-06T20:01:54.830Z,18.00
2022-12-06T20:05:00.093Z,16.00
2022-12-06T20:08:03.412Z,15.60
2022-12-06T20:11:29.066Z,22.00
2022-12-06T20:14:36.870Z,23.00
2022-12-06T20:17:40.939Z,23.25
2022-12-06T20:20:49.888Z,21.33
2022-12-06T20:23:53.363Z,22.00
2022-12-06T20:26:56.966Z,21.60
2022-12-06T20:30:00.456Z,24.80
2022-12-06T20:33:04.120Z,19.50
2022-12-06T20:36:12.736Z,23.80
2022-12-06T20:39:21.315Z,23.60
2022-12-06T20:42:26.511Z,24.00
2022-12-06T20:45:29.838Z,24.00
2022-12-06T20:48:35.656Z,27.00
2022-12-06T20:51:40.289Z,24.00
2022-12-06T20:54:43.758Z,24.40
2022-12-06T20:57:47.143Z,21.00
2022-12-06T21:00:50.575Z,23.00
2022-12-06T21:03:54.748Z,23.50
2022-12-06T21:07:00.153Z,21.00
2022-12-06T21:10:03.790Z,17.60
2022-12-06T21:13:07.588Z,22.00
2022-12-06T21:16:14.445Z,18.75
2022-12-06T21:19:19.888Z,19.80
2022-12-06T21:22:24.630Z,19.50
2022-12-06T21:25:28.082Z,18.60
2022-12-06T21:28:32.335Z,23.20
2022-12-06T21:31:38.374Z,19.60
2022-12-06T21:34:46.361Z,14.80
2022-12-06T21:37:51.307Z,19.80
2022-12-06T21:41:00.211Z,15.67
2022-12-06T21:44:05.129Z,19.00
2022-12-06T21:47:08.455Z,19.20
2022-12-06T21:50:12.555Z,15.60
2022-12-06T21:53:17.216Z,15.75
2022-12-06T21:56:23.059Z,17.00
2022-12-06T21:59:27.138Z,17.00
2022-12-06T22:02:30.523Z,19.00
2022-12-06T22:05:33.747Z,16.20
2022-12-06T22:08:39.273Z,17.80
2022-12-06T22:11:42.561Z,19.25
2022-12-06T22:14:45.892Z,17.00
2022-12-06T22:17:49.195Z,22.40
2022-12-06T22:21:00.025Z,23.40
2022-12-06T22:24:04.976Z,21.60
2022-12-06T22:27:08.212Z,20.40
2022-12-06T22:30:12.279Z,21.20
2022-12-06T22:33:15.823Z,21.40
2022-12-06T22:36:21.278Z,21.20
2022-12-06T22:39:26.263Z,21.40
2022-12-06T22:42:32.531Z,17.00
2022-12-06T22:45:35.956Z,20.60
2022-12-06T22:48:39.710Z,21.75
2022-12-06T22:51:43.425Z,18.80
2022-12-06T22:54:48.703Z,20.00
2022-12-06T22:57:52.296Z,20.25
2022-12-06T23:00:55.844Z,17.25
2022-12-06T23:04:01.909Z,20.25
2022-12-06T23:07:05.308Z,17.60
2022-12-06T23:10:10.878Z,19.75
2022-12-06T23:13:14.134Z,16.60
2022-12-06T23:16:20.088Z,20.60
2022-12-06T23:19:23.396Z,20.00
2022-12-06T23:22:27.039Z,16.75
2022-12-06T23:25:31.809Z,15.60
2022-12-06T23:28:35.895Z,18.40
2022-12-06T23:31:41.294Z,20.00
2022-12-06T23:34:44.559Z,21.60
2022-12-06T23:37:47.855Z,22.00
2022-12-06T23:40:52.519Z,21.00
2022-12-06T23:43:57.245Z,17.40
2022-12-06T23:47:00.567Z,27.00
2022-12-06T23:50:04.374Z,19.40
2022-12-06T23:53:07.706Z,20.00
2022-12-06T23:56:14.463Z,18.00
2022-12-06T23:59:18.797Z,19.40
